CDT,Max TemperatureF,Mean TemperatureF,Min TemperatureF,Max Dew PointF,MeanDew PointF,Min DewpointF,Max Humidity, Mean Humidity, Min Humidity, Max Sea Level PressureIn, Mean Sea Level PressureIn, Min Sea Level PressureIn, Max VisibilityMiles, Mean VisibilityMiles, Min VisibilityMiles, Max Wind SpeedMPH, Mean Wind SpeedMPH, Max Gust SpeedMPH,PrecipitationIn, CloudCover, Events, WindDirDegrees
2013-4-1,65,53,41,43,38,34,92,65,37,30.19,30.10,29.97,10,10,7,16,5,22,0.07,3,Rain,344
2013-4-2,43,39,35,34,33,30,92,81,70,30.29,30.25,30.20,10,10,6,14,7,16,0.16,8,Rain,82
2013-4-3,51,43,34,31,25,21,82,57,32,30.30,30.23,30.18,10,10,10,17,7,22,0.00,6,,98
2013-4-4,52,45,38,35,29,24,85,62,38,30.17,30.11,30.06,10,10,9,14,6,20,0.01,7,Rain,337
2013-4-5,69,55,41,35,29,26,62,42,22,30.19,30.11,30.02,10,10,10,12,5,16,0.00,0,,195
2013-4-6,76,63,50,44,39,32,62,43,23,30.00,29.90,29.80,10,10,10,22,10,30,0.00,0,,178
2013-4-7,78,65,52,54,50,44,77,58,38,29.92,29.85,29.79,10,10,10,23,9,30,0.00,4,,156
2013-4-8,73,65,57,58,56,53,90,76,61,29.83,29.79,29.73,10,10,8,23,10,26,0.04,6,Rain-Thunderstorm,149
2013-4-9,82,72,62,62,57,53,78,62,45,29.84,29.78,29.74,10,10,10,23,13,33,0.00,4,,164
2013-4-10,78,59,39,63,50,37,93,74,54,29.83,29.75,29.64,10,9,2,25,12,33,0.58,8,Rain-Thunderstorm,281
2013-4-11,52,43,34,37,32,29,92,67,42,29.83,29.79,29.73,10,10,5,20,10,29,0.00,5,,290
2013-4-12,60,48,36,33,29,27,70,52,33,30.04,29.92,29.81,10,10,10,17,6,25,0.00,0,,303
2013-4-13,68,53,38,44,38,33,85,61,37,30.08,29.98,29.85,10,10,10,15,7,18,T,3,Rain,138
2013-4-14,79,64,49,56,46,38,86,55,23,29.84,29.69,29.55,10,10,10,24,11,31,0.00,0,,149
2013-4-15,79,68,56,61,59,54,93,74,54,29.81,29.76,29.69,10,10,9,22,11,28,0.00,4,,150
2013-4-16,83,69,54,61,56,52,100,74,47,30.00,29.93,29.82,10,7,0,14,4,17,0.00,5,Fog,342
2013-4-17,84,71,57,66,62,54,87,69,51,29.98,29.86,29.65,10,10,7,29,13,35,0.00,4,,159
2013-4-18,75,57,38,64,49,28,89,77,64,29.94,29.72,29.55,10,9,1,33,16,41,0.76,7,Rain-Thunderstorm,261
2013-4-19,54,45,35,28,24,20,70,48,26,30.12,30.03,29.94,10,10,10,22,10,32,0.00,4,,288
2013-4-20,67,52,37,36,32,27,76,52,28,30.23,30.16,30.11,10,10,10,12,4,15,0.00,0,,119
2013-4-21,68,57,46,41,37,30,82,54,26,30.30,30.23,30.15,10,10,10,20,9,25,0.00,1,,124
2013-4-22,73,57,41,44,38,33,76,51,26,30.22,30.07,29.94,10,10,10,20,9,26,0.00,1,,144
2013-4-23,70,53,36,54,44,35,100,76,51,30.07,29.94,29.85,10,8,2,23,9,33,0.48,6,Rain-Thunderstorm,294
2013-4-24,55,46,36,36,31,26,100,68,35,30.32,30.20,30.07,10,9,4,16,8,23,0.05,5,Rain-Thunderstorm,313
2013-4-25,69,49,29,37,29,25,92,57,21,30.38,30.31,30.25,10,10,10,13,5,17,0.00,0,,171
2013-4-26,56,52,47,48,45,37,100,76,51,30.39,30.26,30.18,10,7,2,22,12,29,1.32,8,Rain-Thunderstorm,116
2013-4-27,58,53,47,54,49,46,100,93,86,30.19,30.06,29.98,10,6,2,17,7,22,0.65,8,Rain-Thunderstorm,119
2013-4-28,72,61,50,51,48,45,93,66,38,30.03,29.97,29.90,10,10,9,15,6,20,0.00,5,,294
2013-4-29,82,66,49,61,55,49,96,66,36,29.94,29.86,29.79,10,10,10,12,6,17,0.00,2,Thunderstorm,130
2013-4-30,82,69,56,56,50,43,78,52,26,29.89,29.85,29.81,10,10,10,21,9,26,0.00,0,,163